createdAt,value
2022-11-13T00:02:38.164Z,101522.03
2022-11-13T00:07:39.642Z,101509.34
2022-11-13T00:12:41.104Z,101511.88
2022-11-13T00:17:42.620Z,101504.25
2022-11-13T00:22:44.149Z,101505.91
2022-11-13T00:27:45.615Z,101500.81
2022-11-13T00:32:47.118Z,101497.41
2022-11-13T00:37:48.586Z,101489.78
2022-11-13T00:42:52.104Z,101479.72
2022-11-13T00:47:53.675Z,101472.06
2022-11-13T00:52:55.128Z,101477.88
2022-11-13T00:57:56.614Z,101467.75
2022-11-13T01:02:59.350Z,101455.88
2022-11-13T01:08:00.972Z,101456.66
2022-11-13T01:13:02.502Z,101457.47
2022-11-13T01:18:04.017Z,101454.97
2022-11-13T01:23:05.538Z,101457.53
2022-11-13T01:28:07.032Z,101447.41
2022-11-13T01:33:08.471Z,101452.47
2022-11-13T01:38:09.924Z,101444.06
2022-11-13T01:43:40.509Z,101439.03
2022-11-13T01:48:47.028Z,101438.22
2022-11-13T01:53:49.182Z,101427.25
2022-11-13T01:58:58.875Z,101420.47
2022-11-13T02:04:00.662Z,101413.75
2022-11-13T02:09:02.521Z,101406.16
2022-11-13T02:14:06.103Z,101412.09
2022-11-13T02:19:14.291Z,101418.75
2022-11-13T02:24:45.595Z,101416.16
2022-11-13T02:29:48.069Z,101408.56
2022-11-13T02:34:49.551Z,101403.34
2022-11-13T02:39:51.064Z,101414.16
2022-11-13T02:44:52.568Z,101399.88
2022-11-13T02:49:54.117Z,101397.31
2022-11-13T02:54:55.593Z,101390.47
2022-11-13T02:59:57.069Z,101384.59
2022-11-13T03:05:12.031Z,101382.13
2022-11-13T03:10:15.072Z,101381.34
2022-11-13T03:15:16.698Z,101374.69
2022-11-13T03:20:18.163Z,101373.13
2022-11-13T03:25:19.710Z,101369.88
2022-11-13T03:30:21.263Z,101363.97
2022-11-13T03:35:25.853Z,101363.97
2022-11-13T03:40:29.046Z,101358.91
2022-11-13T03:45:30.519Z,101360.50
2022-11-13T03:50:32.005Z,101358.81
2022-11-13T03:55:33.475Z,101349.50
2022-11-13T04:00:36.393Z,101352.88
2022-11-13T04:05:38.611Z,101349.47
2022-11-13T04:10:40.170Z,101346.06
2022-11-13T04:15:41.653Z,101337.59
2022-11-13T04:20:43.122Z,101341.78
2022-11-13T04:25:44.824Z,101334.25
2022-11-13T04:30:46.285Z,101330.84
2022-11-13T04:35:48.580Z,101327.41
2022-11-13T04:41:11.130Z,101324.84
2022-11-13T04:46:12.622Z,101324.88
2022-11-13T04:51:14.336Z,101318.13
2022-11-13T04:56:16.847Z,101320.63
2022-11-13T05:01:18.471Z,101314.75
2022-11-13T05:06:20.004Z,101305.41
2022-11-13T05:11:22.647Z,101298.66
2022-11-13T05:16:24.231Z,101296.91
2022-11-13T05:21:25.857Z,101292.66
2022-11-13T05:26:28.703Z,101281.66
2022-11-13T05:31:30.266Z,101273.22
2022-11-13T05:36:32.100Z,101273.16
2022-11-13T05:41:33.811Z,101278.13
2022-11-13T05:46:35.336Z,101271.34
2022-11-13T05:51:36.799Z,101264.69
2022-11-13T05:56:38.361Z,101261.34
2022-11-13T06:01:40.754Z,101268.84
2022-11-13T06:06:43.203Z,101260.41
2022-11-13T06:11:44.859Z,101248.53
2022-11-13T06:16:46.340Z,101250.22
2022-11-13T06:21:47.910Z,101232.59
2022-11-13T06:26:49.374Z,101251.00
2022-11-13T06:31:50.909Z,101229.84
2022-11-13T06:36:52.475Z,101229.09
2022-11-13T06:41:53.950Z,101234.22
2022-11-13T06:46:55.400Z,101225.88
2022-11-13T06:51:56.837Z,101229.22
2022-11-13T06:56:58.569Z,101233.34
2022-11-13T07:02:00.102Z,101219.91
2022-11-13T07:07:01.689Z,101214.75
2022-11-13T07:12:03.304Z,101213.03
2022-11-13T07:17:09.535Z,101215.53
2022-11-13T07:22:11.752Z,101224.81
2022-11-13T07:27:13.214Z,101212.25
2022-11-13T07:32:14.989Z,101202.28
2022-11-13T07:37:16.508Z,101200.78
2022-11-13T07:42:17.991Z,101194.22
2022-11-13T07:47:19.500Z,101193.44
2022-11-13T07:52:21.011Z,101176.63
2022-11-13T07:57:23.065Z,101172.41
2022-11-13T08:02:26.692Z,101170.19
2022-11-13T08:07:28.476Z,101181.94
2022-11-13T08:12:29.914Z,101168.19
2022-11-13T08:17:31.411Z,101173.69
2022-11-13T08:22:33.380Z,101166.06
2022-11-13T08:27:34.858Z,101155.69
2022-11-13T08:32:36.328Z,101140.63
2022-11-13T08:37:37.850Z,101155.75
2022-11-13T08:42:39.416Z,101153.84
2022-11-13T08:47:40.938Z,101154.69
2022-11-13T08:52:42.441Z,101135.53
2022-11-13T08:57:43.866Z,101135.06
2022-11-13T09:02:45.352Z,101132.88
2022-11-13T09:07:46.987Z,101112.31
2022-11-13T09:12:48.489Z,101104.91
2022-11-13T09:17:49.950Z,101093.69
2022-11-13T09:23:03.615Z,101091.63
2022-11-13T09:28:06.525Z,101101.19
2022-11-13T09:33:08.528Z,101091.25
2022-11-13T09:38:13.063Z,101092.03
2022-11-13T09:43:27.278Z,101096.50
2022-11-13T09:48:38.346Z,101090.16
2022-11-13T09:53:43.555Z,101085.81
2022-11-13T09:59:00.439Z,101067.91
2022-11-13T10:04:14.308Z,101071.13
2022-11-13T10:09:34.256Z,101070.50
2022-11-13T10:14:46.329Z,101056.44
2022-11-13T10:19:58.653Z,101054.28
2022-11-13T10:25:10.363Z,101050.59
2022-11-13T10:30:17.319Z,101027.28
2022-11-13T10:35:34.961Z,101023.06
2022-11-13T10:40:39.654Z,101009.06
2022-11-13T10:45:43.641Z,101008.06
2022-11-13T10:50:54.100Z,100994.75
2022-11-13T10:55:59.312Z,100974.34
2022-11-13T11:01:00.949Z,100965.44
2022-11-13T11:06:05.301Z,100958.63
2022-11-13T11:11:54.068Z,100958.41
2022-11-13T11:16:56.240Z,100947.31
2022-11-13T11:22:09.618Z,100949.84
2022-11-13T11:27:22.974Z,100934.50
2022-11-13T11:32:47.857Z,100927.66
2022-11-13T11:37:58.596Z,100913.97
2022-11-13T11:43:24.846Z,100905.75
2022-11-13T11:48:30.030Z,100887.97
2022-11-13T11:53:55.757Z,100876.19
2022-11-13T11:59:06.240Z,100848.75
2022-11-13T12:04:13.981Z,100859.38
2022-11-13T12:09:28.539Z,100837.69
2022-11-13T12:14:56.254Z,100821.69
2022-11-13T12:20:26.282Z,100816.84
2022-11-13T12:25:36.669Z,100802.34
2022-11-13T12:30:53.658Z,100796.31
2022-11-13T12:35:55.804Z,100791.63
2022-11-13T12:41:07.102Z,100776.03
2022-11-13T12:46:11.677Z,100774.28
2022-11-13T12:51:16.757Z,100764.66
2022-11-13T12:56:34.599Z,100764.84
2022-11-13T13:01:44.806Z,100753.50
2022-11-13T13:07:16.721Z,100757.94
2022-11-13T13:12:37.036Z,100746.84
2022-11-13T13:17:41.228Z,100712.56
2022-11-13T13:22:43.022Z,100704.03
2022-11-13T13:27:45.598Z,100699.69
2022-11-13T13:33:00.356Z,100687.81
2022-11-13T13:38:14.381Z,100676.97
2022-11-13T13:43:34.336Z,100680.81
2022-11-13T13:48:39.585Z,100678.41
2022-11-13T13:53:41.211Z,100665.91
2022-11-13T13:58:43.436Z,100660.91
2022-11-13T14:03:45.110Z,100658.44
2022-11-13T14:08:48.415Z,100661.94
2022-11-13T14:13:49.906Z,100654.31
2022-11-13T14:18:51.474Z,100648.38
2022-11-13T14:23:55.413Z,100645.84
2022-11-13T14:29:02.333Z,100636.56
2022-11-13T14:34:14.847Z,100628.06
2022-11-13T14:39:24.690Z,100625.53
2022-11-13T14:44:32.523Z,100617.94
2022-11-13T14:49:37.341Z,100624.03
2022-11-13T14:55:13.180Z,100632.63
2022-11-13T15:00:17.504Z,100640.47
2022-11-13T15:05:19.046Z,100634.72
2022-11-13T15:10:23.328Z,100635.84
2022-11-13T15:15:28.537Z,100634.44
2022-11-13T15:20:31.260Z,100633.09
2022-11-13T15:25:32.872Z,100639.28
2022-11-13T15:30:34.886Z,100648.91
2022-11-13T15:35:36.486Z,100636.47
2022-11-13T15:40:39.443Z,100640.19
2022-11-13T15:45:44.208Z,100642.28
2022-11-13T15:50:48.242Z,100629.97
2022-11-13T15:55:49.944Z,100643.97
2022-11-13T16:00:51.426Z,100661.50
2022-11-13T16:05:52.879Z,100672.81
2022-11-13T16:10:54.962Z,100666.25
2022-11-13T16:15:56.706Z,100671.47
2022-11-13T16:20:58.216Z,100672.38
2022-11-13T16:25:59.780Z,100667.97
2022-11-13T16:31:01.324Z,100665.88
2022-11-13T16:36:03.416Z,100662.81
2022-11-13T16:41:04.958Z,100667.34
2022-11-13T16:46:19.160Z,100671.03
2022-11-13T16:51:20.666Z,100671.31
2022-11-13T16:56:28.309Z,100663.09
2022-11-13T17:01:29.921Z,100666.66
2022-11-13T17:06:35.127Z,100665.91
2022-11-13T17:11:36.647Z,100666.03
2022-11-13T17:16:38.250Z,100658.44
2022-11-13T17:21:44.248Z,100660.97
2022-11-13T17:26:46.062Z,100660.78
2022-11-13T17:31:47.531Z,100669.06
2022-11-13T17:36:49.033Z,100659.59
2022-11-13T17:41:50.641Z,100654.47
2022-11-13T17:46:52.169Z,100649.41
2022-11-13T17:51:56.085Z,100651.13
2022-11-13T17:56:57.561Z,100658.88
2022-11-13T18:01:59.067Z,100654.72
2022-11-13T18:07:00.625Z,100641.22
2022-11-13T18:12:03.003Z,100640.41
2022-11-13T18:17:04.475Z,100642.97
2022-11-13T18:22:06.013Z,100645.31
2022-11-13T18:27:08.163Z,100647.00
2022-11-13T18:32:09.933Z,100639.41
2022-11-13T18:37:11.441Z,100641.09
2022-11-13T18:42:12.934Z,100644.28
2022-11-13T18:47:14.436Z,100644.28
2022-11-13T18:52:15.946Z,100645.00
2022-11-13T18:57:17.448Z,100637.41
2022-11-13T19:02:18.978Z,100631.44
2022-11-13T19:07:20.969Z,100627.22
2022-11-13T19:12:22.619Z,100624.53
2022-11-13T19:17:24.289Z,100614.28
2022-11-13T19:22:25.754Z,100618.28
2022-11-13T19:27:27.287Z,100604.78
2022-11-13T19:32:29.342Z,100606.44
2022-11-13T19:37:31.056Z,100608.03
2022-11-13T19:42:32.550Z,100591.91
2022-11-13T19:47:34.034Z,100596.03
2022-11-13T19:52:35.597Z,100589.19
2022-11-13T19:57:38.310Z,100580.03
2022-11-13T20:02:42.646Z,100595.47
2022-11-13T20:07:44.178Z,100599.78
2022-11-13T20:12:46.359Z,100602.31
2022-11-13T20:17:47.836Z,100604.03
2022-11-13T20:22:51.149Z,100599.84
2022-11-13T20:27:52.631Z,100602.31
2022-11-13T20:32:54.126Z,100600.59
2022-11-13T20:37:57.421Z,100601.47
2022-11-13T20:42:58.914Z,100593.16
2022-11-13T20:48:00.448Z,100588.13
2022-11-13T20:53:01.944Z,100592.47
2022-11-13T20:58:03.436Z,100596.81
2022-11-13T21:03:04.932Z,100602.78
2022-11-13T21:08:10.145Z,100598.53
2022-11-13T21:13:12.700Z,100602.84
2022-11-13T21:18:14.232Z,100595.25
2022-11-13T21:23:15.955Z,100600.19
2022-11-13T21:28:23.423Z,100603.53
2022-11-13T21:33:25.877Z,100598.47
2022-11-13T21:38:27.618Z,100594.28
2022-11-13T21:43:29.279Z,100574.75
2022-11-13T21:48:33.386Z,100561.22
2022-11-13T21:53:35.146Z,100556.94
2022-11-13T21:58:38.832Z,100557.91
2022-11-13T22:03:40.536Z,100541.97
2022-11-13T22:08:45.588Z,100533.53
2022-11-13T22:13:47.093Z,100538.59
2022-11-13T22:18:48.671Z,100531.78
2022-11-13T22:23:50.995Z,100536.78
2022-11-13T22:28:53.807Z,100530.03
2022-11-13T22:33:56.257Z,100528.41
2022-11-13T22:39:01.646Z,100520.06
2022-11-13T22:44:06.164Z,100514.19
2022-11-13T22:49:08.250Z,100500.59
2022-11-13T22:54:11.548Z,100498.81
2022-11-13T22:59:13.315Z,100494.69
2022-11-13T23:04:14.900Z,100491.38
2022-11-13T23:09:16.425Z,100500.63
2022-11-13T23:14:18.015Z,100493.75
2022-11-13T23:19:19.508Z,100492.09
2022-11-13T23:24:20.972Z,100493.84
2022-11-13T23:29:22.492Z,100477.81
2022-11-13T23:34:45.328Z,100478.72
2022-11-13T23:39:45.572Z,100488.84
2022-11-13T23:44:47.058Z,100482.25
2022-11-13T23:49:48.524Z,100473.25
2022-11-13T23:54:50.048Z,100472.41
2022-11-13T23:59:51.543Z,100467.31
